Time;durP1;ratioP1;P1;durP2;ratioP2;P2;SDS_P1;SDS_P2;PMS_P1;PMS_P2;Temp;Humidity;BMP_temperature;BMP_pressure;BME280_temperature;BME280_humidity;BME280_pressure;Samples;Min_cycle;Max_cycle;Signal;HPM_P1;HPM_P2
2024/01/07 00:00:11;;;;;;;9.23;4.37;;;;;;;-2.39;85.66;100316.09;1641465;86;21469;-70
2024/01/07 00:02:41;;;;;;;8.35;4.20;;;;;;;-2.38;85.72;100309.75;1641739;86;21440;-69
2024/01/07 00:05:10;;;;;;;7.08;3.85;;;;;;;-2.35;85.82;100307.32;1665760;86;21284;-70
2024/01/07 00:07:40;;;;;;;7.12;3.90;;;;;;;-2.34;85.57;100322.45;1666019;85;21034;-70
2024/01/07 00:10:10;;;;;;;7.28;3.77;;;;;;;-2.35;85.43;100316.22;1641746;86;21518;-69
2024/01/07 00:12:39;;;;;;;7.15;3.90;;;;;;;-2.34;85.26;100323.78;1665931;86;21026;-70
2024/01/07 00:15:09;;;;;;;7.33;3.90;;;;;;;-2.33;85.21;100319.64;1665885;86;21454;-70
2024/01/07 00:17:39;;;;;;;7.78;4.03;;;;;;;-2.31;85.16;100320.87;1620073;86;21133;-71
2024/01/07 00:20:11;;;;;;;7.62;4.00;;;;;;;-2.29;85.01;100321.12;1641429;86;21014;-71
2024/01/07 00:22:42;;;;;;;8.70;4.10;;;;;;;-2.29;84.88;100315.75;1642318;86;21073;-70
2024/01/07 00:25:13;;;;;;;6.90;3.62;;;;;;;-2.27;84.87;100315.15;1665758;86;21124;-69
2024/01/07 00:27:43;;;;;;;8.35;4.28;;;;;;;-2.26;84.63;100332.10;1665747;86;21065;-71
2024/01/07 00:30:14;;;;;;;6.58;3.50;;;;;;;-2.27;84.30;100338.44;1665838;85;21066;-69
2024/01/07 00:32:43;;;;;;;7.33;3.08;;;;;;;-2.33;83.94;100334.40;1666000;85;21518;-72
2024/01/07 00:35:12;;;;;;;6.53;3.65;;;;;;;-2.35;83.58;100328.30;1619228;86;21489;-69
2024/01/07 00:37:41;;;;;;;7.95;3.47;;;;;;;-2.38;83.35;100323.16;1666018;85;21097;-71
2024/01/07 00:40:12;;;;;;;10.63;4.15;;;;;;;-2.41;83.14;100327.42;1665867;85;21032;-70
2024/01/07 00:42:42;;;;;;;6.15;3.20;;;;;;;-2.41;82.68;100326.08;1665813;85;21077;-69
2024/01/07 00:45:10;;;;;;;5.80;2.98;;;;;;;-2.42;82.84;100327.54;1665786;85;21128;-70
2024/01/07 00:47:38;;;;;;;7.08;3.35;;;;;;;-2.43;82.41;100332.05;1665895;86;21073;-69
2024/01/07 00:50:08;;;;;;;6.80;3.30;;;;;;;-2.43;82.46;100335.22;1664521;84;21113;-70
2024/01/07 00:52:37;;;;;;;6.80;3.20;;;;;;;-2.42;82.42;100335.10;1664642;86;21049;-69
2024/01/07 00:55:08;;;;;;;5.75;3.00;;;;;;;-2.38;82.37;100333.89;1664567;86;21531;-70
2024/01/07 00:57:36;;;;;;;9.30;3.62;;;;;;;-2.37;82.10;100340.12;1664365;86;21054;-70
2024/01/07 01:00:07;;;;;;;6.67;2.90;;;;;;;-2.37;81.93;100340.97;1639507;86;21058;-70
2024/01/07 01:02:37;;;;;;;6.90;3.33;;;;;;;-2.38;81.53;100346.45;1664493;86;21070;-71
2024/01/07 01:05:08;;;;;;;5.90;3.08;;;;;;;-2.41;81.44;100346.69;1664581;86;21085;-70
2024/01/07 01:07:36;;;;;;;6.83;3.12;;;;;;;-2.43;81.15;100344.61;1664361;86;21042;-70
2024/01/07 01:10:07;;;;;;;6.40;3.45;;;;;;;-2.45;80.66;100339.84;1664513;86;21002;-70
2024/01/07 01:12:35;;;;;;;6.58;3.50;;;;;;;-2.48;80.71;100342.27;1664458;86;21117;-70
2024/01/07 01:15:05;;;;;;;8.58;3.42;;;;;;;-2.49;80.58;100345.92;1664370;86;21009;-70
2024/01/07 01:17:34;;;;;;;6.30;3.40;;;;;;;-2.48;80.67;100328.86;1664467;86;21054;-70
2024/01/07 01:20:03;;;;;;;7.12;3.62;;;;;;;-2.54;79.95;100344.56;1640213;86;21041;-69
2024/01/07 01:22:32;;;;;;;6.92;3.47;;;;;;;-2.59;80.02;100351.62;1664398;86;21010;-69
2024/01/07 01:25:01;;;;;;;6.33;3.12;;;;;;;-2.62;80.22;100347.79;1664457;86;21077;-69
2024/01/07 01:27:30;;;;;;;6.62;3.72;;;;;;;-2.64;80.33;100358.63;1664570;86;21103;-69
2024/01/07 01:30:00;;;;;;;7.97;3.67;;;;;;;-2.67;80.00;100349.97;1664315;86;21529;-69
2024/01/07 01:32:29;;;;;;;7.70;3.55;;;;;;;-2.72;80.23;100355.67;1664346;86;21026;-69
2024/01/07 01:34:57;;;;;;;7.37;3.70;;;;;;;-2.77;80.30;100348.94;1664326;86;21038;-70
2024/01/07 01:37:26;;;;;;;8.63;3.80;;;;;;;-2.83;80.53;100356.95;1664320;86;21001;-70
2024/01/07 01:39:55;;;;;;;7.95;3.60;;;;;;;-2.85;80.83;100350.85;1640080;86;21085;-70
2024/01/07 01:42:24;;;;;;;9.95;3.95;;;;;;;-2.87;80.74;100358.15;1664352;86;21089;-69
2024/01/07 01:44:56;;;;;;;6.28;3.17;;;;;;;-2.87;80.97;100364.37;1664441;86;21030;-69
2024/01/07 01:47:23;;;;;;;6.67;3.47;;;;;;;-2.88;80.76;100346.57;1664333;85;21502;-68
2024/01/07 01:49:51;;;;;;;12.55;3.85;;;;;;;-2.86;80.87;100351.81;1664203;86;21093;-69
2024/01/07 01:52:20;;;;;;;6.78;3.58;;;;;;;-2.87;80.86;100352.30;1664227;86;21078;-69
2024/01/07 01:54:50;;;;;;;6.87;3.92;;;;;;;-2.85;81.18;100349.99;1664281;86;21002;-70
2024/01/07 01:57:22;;;;;;;5.87;3.37;;;;;;;-2.85;81.12;100366.08;1664386;86;21070;-71
2024/01/07 01:59:51;;;;;;;7.28;3.60;;;;;;;-2.91;80.77;100355.33;1664317;86;21109;-69
2024/01/07 02:02:19;;;;;;;7.22;3.65;;;;;;;-2.96;80.71;100354.32;1664216;86;21490;-69
2024/01/07 02:04:47;;;;;;;7.87;3.40;;;;;;;-3.01;80.74;100353.80;1664513;86;21053;-70
2024/01/07 02:07:16;;;;;;;6.15;3.40;;;;;;;-3.04;80.67;100362.55;1639868;86;21002;-69
2024/01/07 02:09:44;;;;;;;5.22;3.15;;;;;;;-3.08;80.46;100360.58;1664448;86;21053;-69
2024/01/07 02:12:13;;;;;;;6.45;3.58;;;;;;;-3.09;80.71;100363.38;1639888;86;21105;-70
2024/01/07 02:14:41;;;;;;;9.40;3.58;;;;;;;-3.09;80.93;100353.52;1664273;86;21070;-70
2024/01/07 02:17:10;;;;;;;6.72;3.22;;;;;;;-3.09;81.05;100358.87;1664367;86;21021;-69
2024/01/07 02:19:38;;;;;;;6.30;3.00;;;;;;;-3.07;81.27;100352.06;1664494;86;21060;-70
2024/01/07 02:22:07;;;;;;;6.78;3.45;;;;;;;-3.11;81.16;100356.78;1664271;86;21050;-70
2024/01/07 02:24:36;;;;;;;6.35;3.20;;;;;;;-3.13;81.11;100350.69;1664359;86;21057;-68
2024/01/07 02:27:05;;;;;;;8.25;3.72;;;;;;;-3.13;81.22;100352.51;1664484;86;21482;-70
2024/01/07 02:29:34;;;;;;;6.97;3.58;;;;;;;-3.14;81.17;100355.67;1664504;86;21074;-70
2024/01/07 02:32:04;;;;;;;6.80;3.50;;;;;;;-3.17;81.09;100349.67;1639965;86;21105;-69
2024/01/07 02:34:32;;;;;;;8.03;3.70;;;;;;;-3.21;81.24;100353.92;1664300;86;21475;-69
2024/01/07 02:37:01;;;;;;;7.25;3.80;;;;;;;-3.21;81.26;100356.59;1664262;86;21061;-69
2024/01/07 02:39:30;;;;;;;7.40;3.92;;;;;;;-3.21;81.29;100363.78;1664478;86;21074;-68
2024/01/07 02:41:59;;;;;;;7.05;3.98;;;;;;;-3.21;81.32;100358.42;1664556;86;21467;-68
2024/01/07 02:44:27;;;;;;;7.50;3.20;;;;;;;-3.28;80.91;100369.17;1664307;86;21001;-69
2024/01/07 02:46:56;;;;;;;8.45;4.17;;;;;;;-3.35;80.70;100363.89;1664481;86;21022;-70
2024/01/07 02:49:24;;;;;;;6.33;3.37;;;;;;;-3.36;81.12;100363.03;1664231;86;21097;-69
2024/01/07 02:51:53;;;;;;;7.92;3.50;;;;;;;-3.32;81.26;100365.01;1664490;86;21046;-70
2024/01/07 02:54:22;;;;;;;8.28;4.08;;;;;;;-3.32;80.98;100369.02;1664480;86;21073;-70
2024/01/07 02:56:51;;;;;;;7.00;3.22;;;;;;;-3.34;81.08;100370.48;1664362;86;21579;-68
2024/01/07 02:59:20;;;;;;;6.78;3.65;;;;;;;-3.33;81.06;100371.33;1664415;86;21508;-69
2024/01/07 03:01:49;;;;;;;8.23;4.15;;;;;;;-3.34;81.09;100369.14;1664709;86;21054;-69
2024/01/07 03:04:18;;;;;;;7.50;4.15;;;;;;;-3.33;80.93;100368.17;1640091;86;21093;-68
2024/01/07 03:06:47;;;;;;;9.23;3.90;;;;;;;-3.41;80.56;100371.02;1664464;86;21053;-67
2024/01/07 03:09:15;;;;;;;5.75;3.58;;;;;;;-3.51;79.96;100370.34;1664307;86;21077;-68
2024/01/07 03:11:44;;;;;;;7.25;3.95;;;;;;;-3.60;80.21;100364.30;1664359;86;21074;-69
2024/01/07 03:14:13;;;;;;;7.10;3.45;;;;;;;-3.64;80.46;100370.84;1664304;86;21482;-68
2024/01/07 03:16:41;;;;;;;8.63;3.62;;;;;;;-3.64;80.68;100369.98;1664588;86;21484;-70
2024/01/07 03:19:10;;;;;;;6.35;3.45;;;;;;;-3.68;80.54;100372.02;1664333;86;21057;-69
2024/01/07 03:21:39;;;;;;;7.47;3.55;;;;;;;-3.73;80.50;100375.50;1664350;86;21065;-70
2024/01/07 03:24:09;;;;;;;7.70;3.20;;;;;;;-3.76;80.61;100370.36;1664331;86;21018;-69
2024/01/07 03:26:38;;;;;;;6.37;3.58;;;;;;;-3.80;80.53;100383.59;1664642;86;21029;-69
2024/01/07 03:29:08;;;;;;;6.92;3.65;;;;;;;-3.84;80.67;100383.42;1664349;86;21046;-69
2024/01/07 03:31:37;;;;;;;5.97;3.30;;;;;;;-3.89;80.45;100393.11;1664385;86;21022;-70
2024/01/07 03:34:05;;;;;;;6.37;3.37;;;;;;;-3.92;80.59;100393.77;1664261;86;21482;-69
2024/01/07 03:36:37;;;;;;;8.35;4.00;;;;;;;-3.95;80.53;100408.22;1640347;86;21065;-69
2024/01/07 03:39:07;;;;;;;6.22;3.40;;;;;;;-3.97;80.70;100411.97;1664510;86;21030;-69
2024/01/07 03:41:36;;;;;;;6.35;3.42;;;;;;;-4.00;80.38;100406.34;1664571;86;21014;-70
2024/01/07 03:44:05;;;;;;;7.62;3.50;;;;;;;-4.02;80.55;100404.25;1664349;86;21537;-68
2024/01/07 03:46:33;;;;;;;7.83;3.50;;;;;;;-3.99;80.70;100408.53;1639906;86;21470;-68
2024/01/07 03:49:02;;;;;;;6.92;3.62;;;;;;;-3.97;80.66;100420.84;1664312;86;21050;-70
2024/01/07 03:51:31;;;;;;;10.05;3.60;;;;;;;-3.98;80.56;100419.62;1664380;86;21137;-70
2024/01/07 03:54:00;;;;;;;7.62;3.90;;;;;;;-4.00;80.46;100419.72;1664541;86;21157;-69
2024/01/07 03:56:29;;;;;;;9.05;3.98;;;;;;;-4.02;80.57;100422.98;1639989;86;21042;-69
2024/01/07 03:58:57;;;;;;;6.72;3.62;;;;;;;-4.02;80.62;100424.33;1664367;86;21021;-69
2024/01/07 04:01:26;;;;;;;6.42;3.67;;;;;;;-4.01;80.52;100429.19;1664368;86;21474;-67
2024/01/07 04:03:54;;;;;;;8.85;3.80;;;;;;;-4.06;80.08;100413.94;1664387;86;21057;-69
2024/01/07 04:06:24;;;;;;;7.37;3.35;;;;;;;-4.13;79.63;100414.83;1640274;86;21113;-69
2024/01/07 04:08:53;;;;;;;6.97;3.52;;;;;;;-4.22;79.64;100423.00;1664403;86;21048;-69
2024/01/07 04:11:22;;;;;;;6.83;3.77;;;;;;;-4.27;79.62;100426.95;1664600;86;21049;-68
2024/01/07 04:13:50;;;;;;;7.45;3.72;;;;;;;-4.33;79.53;100426.87;1664315;86;21507;-66
2024/01/07 04:16:19;;;;;;;6.97;3.58;;;;;;;-4.37;79.59;100429.38;1664515;86;21073;-70
2024/01/07 04:18:48;;;;;;;6.00;3.80;;;;;;;-4.37;79.53;100432.53;1664390;86;21025;-68
2024/01/07 04:21:19;;;;;;;7.20;3.65;;;;;;;-4.41;79.43;100435.89;1663934;86;21490;-68
2024/01/07 04:23:47;;;;;;;6.55;3.60;;;;;;;-4.44;79.47;100453.95;1664379;86;21085;-69
2024/01/07 04:26:17;;;;;;;6.85;3.75;;;;;;;-4.49;79.43;100453.78;1664428;86;21022;-68
2024/01/07 04:28:46;;;;;;;6.45;3.50;;;;;;;-4.51;79.32;100449.48;1664329;86;21745;-69
2024/01/07 04:31:15;;;;;;;6.12;3.45;;;;;;;-4.57;79.27;100452.53;1664499;86;21041;-67
2024/01/07 04:33:43;;;;;;;8.63;3.98;;;;;;;-4.61;79.31;100452.35;1664302;86;21112;-68
2024/01/07 04:36:12;;;;;;;7.45;3.80;;;;;;;-4.64;79.32;100455.22;1664332;86;20990;-70
2024/01/07 04:38:41;;;;;;;7.10;3.67;;;;;;;-4.69;79.14;100467.55;1664336;86;21049;-68
2024/01/07 04:41:09;;;;;;;6.40;3.30;;;;;;;-4.72;79.29;100474.91;1664319;86;21049;-69
2024/01/07 04:43:38;;;;;;;7.12;3.60;;;;;;;-4.73;79.39;100477.20;1664418;86;21066;-69
2024/01/07 04:46:06;;;;;;;9.58;3.65;;;;;;;-4.73;79.64;100468.71;1664434;86;21065;-68
2024/01/07 04:48:35;;;;;;;6.78;3.70;;;;;;;-4.68;79.72;100479.96;1664614;86;21029;-69
2024/01/07 04:51:04;;;;;;;7.28;3.50;;;;;;;-4.67;79.64;100470.13;1664243;84;21119;-69
2024/01/07 04:53:33;;;;;;;6.70;3.60;;;;;;;-4.70;79.40;100471.66;1664418;86;21077;-70
2024/01/07 04:56:02;;;;;;;7.92;3.58;;;;;;;-4.69;79.58;100474.71;1664296;86;21046;-70
2024/01/07 04:58:30;;;;;;;11.95;3.70;;;;;;;-4.66;79.59;100477.19;1664454;86;21069;-69
2024/01/07 05:00:59;;;;;;;6.42;3.55;;;;;;;-4.65;79.47;100476.23;1664391;86;21054;-70
2024/01/07 05:03:28;;;;;;;7.78;3.52;;;;;;;-4.65;79.33;100471.74;1664468;86;21052;-68
2024/01/07 05:05:56;;;;;;;6.75;3.62;;;;;;;-4.68;78.86;100471.94;1664282;86;21073;-69
2024/01/07 05:08:28;;;;;;;8.13;3.67;;;;;;;-4.76;78.63;100478.73;1664668;86;21029;-68
2024/01/07 05:10:56;;;;;;;8.88;3.47;;;;;;;-4.85;78.77;100469.50;1664372;86;21057;-68
2024/01/07 05:13:25;;;;;;;6.65;3.33;;;;;;;-4.89;78.90;100482.20;1664521;86;21121;-70
2024/01/07 05:15:54;;;;;;;6.05;3.40;;;;;;;-4.89;78.94;100473.32;1664298;86;21053;-71
2024/01/07 05:18:25;;;;;;;10.75;3.37;;;;;;;-4.89;78.87;100482.20;1664359;86;21485;-69
2024/01/07 05:20:55;;;;;;;7.90;3.37;;;;;;;-4.89;78.87;100481.34;1664511;86;21038;-68
2024/01/07 05:23:24;;;;;;;7.30;3.30;;;;;;;-4.88;78.57;100495.94;1664345;86;21053;-69
2024/01/07 05:25:53;;;;;;;7.25;3.20;;;;;;;-4.92;78.42;100494.89;1664435;86;21045;-70
2024/01/07 05:28:22;;;;;;;7.35;3.40;;;;;;;-4.96;78.21;100492.03;1664336;86;21539;-69
2024/01/07 05:30:51;;;;;;;7.67;3.58;;;;;;;-4.99;78.37;100491.75;1664553;86;21531;-67
2024/01/07 05:33:20;;;;;;;5.85;2.90;;;;;;;-5.02;77.98;100497.29;1664568;86;21038;-68
2024/01/07 05:35:49;;;;;;;6.50;3.25;;;;;;;-5.11;77.57;100502.73;1664310;86;21061;-68
2024/01/07 05:38:19;;;;;;;7.33;3.33;;;;;;;-5.12;77.58;100505.02;1664472;86;21046;-69
2024/01/07 05:40:48;;;;;;;5.65;2.80;;;;;;;-5.12;77.58;100505.02;1664555;86;21442;-68
2024/01/07 05:43:17;;;;;;;6.17;2.70;;;;;;;-5.12;77.79;100501.02;1664319;86;21452;-68
2024/01/07 05:45:47;;;;;;;5.67;2.77;;;;;;;-5.07;77.78;100502.06;1664582;86;21010;-68
2024/01/07 05:48:16;;;;;;;5.87;2.85;;;;;;;-5.06;77.47;100499.77;1664355;85;21072;-69
2024/01/07 05:50:45;;;;;;;9.13;3.12;;;;;;;-5.10;77.37;100507.59;1664745;86;21105;-68
2024/01/07 05:53:14;;;;;;;5.83;2.75;;;;;;;-5.12;76.97;100497.00;1665790;86;21078;-69
2024/01/07 05:55:43;;;;;;;5.97;2.72;;;;;;;-5.11;76.93;100499.20;1665859;86;21045;-70
2024/01/07 05:58:12;;;;;;;5.75;3.00;;;;;;;-5.12;76.55;100501.02;1665691;85;21058;-70
2024/01/07 06:00:42;;;;;;;5.30;2.80;;;;;;;-5.13;76.17;100490.42;1665933;86;21058;-70
2024/01/07 06:03:11;;;;;;;6.75;2.70;;;;;;;-5.16;76.39;100490.14;1641779;86;21053;-68
2024/01/07 06:05:40;;;;;;;5.80;2.67;;;;;;;-5.16;76.39;100490.14;1642120;86;21494;-69
2024/01/07 06:08:10;;;;;;;6.95;2.75;;;;;;;-5.12;76.43;100490.33;1665888;86;21117;-69
2024/01/07 06:10:41;;;;;;;5.20;2.67;;;;;;;-5.07;76.09;100502.53;1641691;86;21021;-68
2024/01/07 06:13:10;;;;;;;6.35;2.55;;;;;;;-5.05;75.65;100515.32;1665842;86;21509;-68
2024/01/07 06:15:39;;;;;;;5.15;2.40;;;;;;;-5.05;75.65;100515.32;1665896;86;21089;-68
2024/01/07 06:18:08;;;;;;;7.22;2.72;;;;;;;-5.08;74.46;100515.52;1665734;86;21488;-68
2024/01/07 06:20:37;;;;;;;6.78;2.60;;;;;;;-5.21;73.53;100520.73;1665711;86;21046;-68
2024/01/07 06:23:06;;;;;;;5.58;2.42;;;;;;;-5.28;73.70;100519.39;1665750;86;21508;-68
2024/01/07 06:25:35;;;;;;;6.92;2.67;;;;;;;-5.27;73.67;100510.42;1665759;86;21038;-69
2024/01/07 06:28:04;;;;;;;4.30;2.27;;;;;;;-5.27;73.66;100510.42;1665919;86;21069;-68
2024/01/07 06:30:33;;;;;;;4.40;2.10;;;;;;;-5.27;73.66;100522.44;1666037;86;21077;-69
2024/01/07 06:33:03;;;;;;;5.62;2.40;;;;;;;-5.27;73.33;100527.78;1665928;85;21093;-69
2024/01/07 06:35:32;;;;;;;12.63;3.33;;;;;;;-5.33;72.85;100518.81;1666010;86;21116;-67
2024/01/07 06:38:01;;;;;;;6.92;2.60;;;;;;;-5.31;72.69;100523.58;1665748;86;21081;-68
2024/01/07 06:40:30;;;;;;;6.10;2.22;;;;;;;-5.34;72.45;100520.62;1665747;86;21466;-68
2024/01/07 06:42:59;;;;;;;4.30;2.47;;;;;;;-5.36;72.28;100517.66;1666078;86;21046;-69
2024/01/07 06:45:28;;;;;;;9.53;2.37;;;;;;;-5.39;72.18;100508.03;1665816;86;21089;-69
2024/01/07 06:47:57;;;;;;;5.12;2.35;;;;;;;-5.39;72.29;100530.73;1665764;85;21121;-69
2024/01/07 06:50:26;;;;;;;5.50;2.42;;;;;;;-5.39;72.29;100530.73;1665852;86;21085;-70
2024/01/07 06:52:56;;;;;;;6.03;2.60;;;;;;;-5.42;72.18;100523.77;1664463;86;21026;-69
2024/01/07 06:55:28;;;;;;;3.47;1.85;;;;;;;-5.41;72.12;100529.95;1664510;86;21066;-69
2024/01/07 06:57:59;;;;;;;4.97;2.40;;;;;;;-5.48;71.81;100529.95;1641314;86;21062;-71
2024/01/07 07:00:28;;;;;;;4.72;2.25;;;;;;;-5.57;71.17;100530.03;1664452;86;20998;-69
2024/01/07 07:02:57;;;;;;;4.33;2.22;;;;;;;-5.57;71.17;100530.03;1639986;86;21050;-68
2024/01/07 07:05:26;;;;;;;6.28;2.20;;;;;;;-5.64;71.27;100530.02;1664388;86;21017;-68
2024/01/07 07:07:55;;;;;;;6.85;2.30;;;;;;;-5.65;71.34;100540.31;1664518;86;21474;-69
2024/01/07 07:10:24;;;;;;;7.12;2.70;;;;;;;-5.64;71.39;100539.36;1664274;86;21096;-69
2024/01/07 07:12:52;;;;;;;6.33;2.20;;;;;;;-5.64;71.39;100539.36;1664321;86;21038;-69
2024/01/07 07:15:21;;;;;;;9.25;2.47;;;;;;;-5.55;71.84;100540.61;1640226;86;21089;-69
2024/01/07 07:17:50;;;;;;;7.12;2.50;;;;;;;-5.48;71.80;100537.48;1664404;86;21081;-69
2024/01/07 07:20:19;;;;;;;7.50;2.47;;;;;;;-5.42;71.55;100539.78;1640435;86;21086;-69
2024/01/07 07:22:48;;;;;;;11.57;2.90;;;;;;;-5.43;71.22;100542.06;1664313;86;21014;-68
2024/01/07 07:25:17;;;;;;;6.17;2.42;;;;;;;-5.47;71.09;100537.86;1640199;86;21057;-68
2024/01/07 07:27:46;;;;;;;7.08;2.60;;;;;;;-5.48;70.93;100539.30;1664484;86;21049;-70
2024/01/07 07:30:15;;;;;;;5.47;2.55;;;;;;;-5.48;70.93;100539.30;1664287;86;21061;-68
2024/01/07 07:32:44;;;;;;;5.03;2.70;;;;;;;-5.53;70.24;100539.57;1664463;86;21026;-69
2024/01/07 07:35:13;;;;;;;6.22;1.95;;;;;;;-5.53;70.24;100539.57;1664560;86;21061;-70
2024/01/07 07:37:42;;;;;;;6.40;2.12;;;;;;;-5.60;70.20;100549.37;1664504;86;21094;-68
2024/01/07 07:40:12;;;;;;;4.47;2.47;;;;;;;-5.60;70.20;100549.37;1664370;86;21105;-69
2024/01/07 07:42:42;;;;;;;6.22;2.45;;;;;;;-5.63;70.41;100549.08;1664572;86;21077;-69
2024/01/07 07:45:11;;;;;;;5.28;2.02;;;;;;;-5.63;70.54;100549.08;1664532;86;21054;-69
2024/01/07 07:47:44;;;;;;;5.17;2.35;;;;;;;-5.65;70.76;100546.98;1664396;86;21018;-68
2024/01/07 07:50:11;;;;;;;6.03;2.70;;;;;;;-5.65;70.76;100546.98;1664566;85;21034;-69
2024/01/07 07:52:43;;;;;;;7.30;2.67;;;;;;;-5.61;70.87;100559.19;1664282;86;21113;-68
2024/01/07 07:55:12;;;;;;;6.20;2.67;;;;;;;-5.65;70.68;100550.98;1664537;86;21117;-69
2024/01/07 07:57:41;;;;;;;6.80;2.80;;;;;;;-5.65;70.68;100550.98;1664535;86;21084;-69
2024/01/07 08:00:12;;;;;;;6.12;2.50;;;;;;;-5.60;70.79;100554.23;1664385;86;21046;-69
2024/01/07 08:02:41;;;;;;;4.05;2.37;;;;;;;-5.59;70.78;100550.62;1664491;86;21085;-69
2024/01/07 08:05:10;;;;;;;8.28;2.98;;;;;;;-5.55;70.93;100556.16;1640127;86;21077;-69
2024/01/07 08:07:39;;;;;;;7.90;2.70;;;;;;;-5.53;70.71;100556.06;1664670;86;21108;-69
2024/01/07 08:10:09;;;;;;;11.53;2.98;;;;;;;-5.53;70.68;100559.59;1640413;86;21013;-69
2024/01/07 08:12:37;;;;;;;6.50;2.75;;;;;;;-5.49;70.81;100558.45;1664505;86;21046;-69
2024/01/07 08:15:08;;;;;;;5.40;2.47;;;;;;;-5.42;70.88;100559.80;1664551;86;21038;-69
2024/01/07 08:17:36;;;;;;;5.15;2.62;;;;;;;-5.39;70.64;100565.91;1664377;86;21093;-69
2024/01/07 08:20:07;;;;;;;7.28;2.45;;;;;;;-5.39;70.64;100565.91;1664492;86;21450;-70
2024/01/07 08:22:36;;;;;;;4.85;2.50;;;;;;;-5.40;70.50;100564.19;1664337;86;21038;-70
2024/01/07 08:25:06;;;;;;;5.95;2.65;;;;;;;-5.39;70.25;100561.91;1664505;86;21050;-69
2024/01/07 08:27:34;;;;;;;8.33;2.90;;;;;;;-5.44;70.17;100557.70;1664282;86;21074;-69
2024/01/07 08:30:05;;;;;;;7.53;3.22;;;;;;;-5.47;69.90;100558.36;1664462;86;21050;-70
2024/01/07 08:32:34;;;;;;;8.93;3.05;;;;;;;-5.51;70.18;100551.02;1664443;86;21066;-68
2024/01/07 08:35:04;;;;;;;6.58;2.95;;;;;;;-5.46;70.11;100554.73;1640408;86;21030;-69
2024/01/07 08:37:35;;;;;;;6.80;2.85;;;;;;;-5.45;70.21;100548.45;1664392;86;21059;-69
2024/01/07 08:40:09;;;;;;;8.30;2.95;;;;;;;-5.40;70.39;100549.03;1664220;86;21082;-70
2024/01/07 08:42:37;;;;;;;5.85;2.87;;;;;;;-5.38;70.08;100560.95;1664674;86;21528;-69
2024/01/07 08:45:08;;;;;;;6.42;2.90;;;;;;;-5.38;69.99;100560.95;1640304;86;21038;-68
2024/01/07 08:47:37;;;;;;;6.53;3.22;;;;;;;-5.38;69.45;100566.30;1664527;86;21042;-70
2024/01/07 08:50:08;;;;;;;8.70;2.60;;;;;;;-5.45;69.28;100560.47;1663671;86;21626;-69
2024/01/07 08:52:37;;;;;;;7.50;2.90;;;;;;;-5.44;69.46;100560.84;1665210;86;21093;-69
2024/01/07 08:55:09;;;;;;;5.83;2.67;;;;;;;-5.44;69.28;100553.70;1665869;86;21481;-69
2024/01/07 08:57:39;;;;;;;16.40;3.47;;;;;;;-5.43;68.81;100541.20;1665940;86;21037;-69
2024/01/07 09:00:10;;;;;;;8.08;2.67;;;;;;;-5.43;68.81;100541.20;1619949;86;21517;-70
2024/01/07 09:02:40;;;;;;;11.78;3.22;;;;;;;-5.42;68.91;100546.45;1665789;85;21049;-69
2024/01/07 09:05:14;;;;;;;5.92;2.77;;;;;;;-5.39;68.75;100547.22;1642193;86;21089;-69
2024/01/07 09:07:43;;;;;;;9.53;3.17;;;;;;;-5.39;68.76;100545.89;1665803;86;21005;-69
2024/01/07 09:10:13;;;;;;;5.87;2.60;;;;;;;-5.41;68.43;100539.30;1651038;85;21054;-71
2024/01/07 09:12:42;;;;;;;9.93;3.00;;;;;;;-5.32;68.70;100537.41;1665916;84;21057;-71
2024/01/07 09:15:11;;;;;;;6.80;2.55;;;;;;;-5.32;68.70;100537.41;1664576;84;21066;-72
2024/01/07 09:17:39;;;;;;;6.87;2.70;;;;;;;-5.30;68.15;100546.66;1666180;85;21037;-71
2024/01/07 09:20:10;;;;;;;7.17;3.10;;;;;;;-5.27;68.06;100550.00;1667694;85;21321;-72
2024/01/07 09:22:39;;;;;;;9.03;3.72;;;;;;;-5.26;67.99;100534.36;1633938;86;21059;-71
2024/01/07 09:25:11;;;;;;;6.90;3.33;;;;;;;-5.23;67.73;100534.66;1602816;89;21527;-71
2024/01/07 09:27:40;;;;;;;6.47;3.33;;;;;;;-5.25;67.41;100524.06;1681588;85;21109;-72
2024/01/07 09:30:11;;;;;;;9.58;3.47;;;;;;;-5.25;67.41;100524.06;1665248;86;21101;-72
2024/01/07 09:32:41;;;;;;;8.70;3.92;;;;;;;-5.25;67.15;100532.08;1665198;86;21082;-71
2024/01/07 09:35:11;;;;;;;6.70;2.98;;;;;;;-5.19;67.40;100533.55;1638331;86;21059;-71
2024/01/07 09:37:39;;;;;;;5.50;2.90;;;;;;;-5.17;66.72;100524.48;1600664;90;21486;-70
2024/01/07 09:40:10;;;;;;;7.67;3.00;;;;;;;-5.22;66.44;100540.38;1600672;90;21098;-71
2024/01/07 09:42:39;;;;;;;6.97;3.15;;;;;;;-5.32;66.03;100528.54;1600803;89;21156;-72
2024/01/07 09:45:10;;;;;;;7.65;3.02;;;;;;;-5.37;66.52;100535.97;1601463;89;21105;-71
2024/01/07 09:47:43;;;;;;;9.35;3.27;;;;;;;-5.36;66.50;100527.01;1646542;86;21475;-72
2024/01/07 09:50:13;;;;;;;8.28;3.30;;;;;;;-5.36;66.11;100526.53;1665214;86;21089;-71
2024/01/07 09:52:44;;;;;;;6.67;3.15;;;;;;;-5.36;65.98;100528.34;1630720;86;21126;-71
2024/01/07 09:55:23;;;;;;;6.92;3.02;;;;;;;-5.36;65.98;100528.34;1600638;90;21067;-71
2024/01/07 09:57:52;;;;;;;7.83;3.22;;;;;;;-5.44;65.62;100531.00;1601906;89;21059;-71
2024/01/07 10:00:21;;;;;;;5.45;2.62;;;;;;;-5.51;66.01;100522.98;1600565;89;21067;-71
2024/01/07 10:02:50;;;;;;;7.87;2.87;;;;;;;-5.52;65.75;100521.74;1600760;90;21047;-70
2024/01/07 10:05:19;;;;;;;8.23;3.20;;;;;;;-5.51;65.91;100529.66;1600655;90;21086;-72
2024/01/07 10:07:48;;;;;;;12.98;3.00;;;;;;;-5.60;65.19;100530.21;1600541;88;21083;-71
2024/01/07 10:10:18;;;;;;;11.33;3.35;;;;;;;-5.60;65.19;100530.21;1592628;89;21067;-70
2024/01/07 10:12:47;;;;;;;5.87;2.90;;;;;;;-5.62;65.61;100525.45;1600610;89;21114;-69
2024/01/07 10:15:16;;;;;;;6.90;2.90;;;;;;;-5.64;65.53;100514.00;1600774;89;21071;-71
2024/01/07 10:18:07;;;;;;;8.23;3.47;;;;;;;-5.62;65.57;100522.77;1600655;90;21541;-72
2024/01/07 10:20:35;;;;;;;11.73;4.33;;;;;;;-5.59;65.35;100513.72;1703552;84;21054;-72
2024/01/07 10:23:07;;;;;;;5.55;2.70;;;;;;;-5.54;65.24;100519.64;1733417;82;21017;-72
2024/01/07 10:25:37;;;;;;;8.08;3.80;;;;;;;-5.54;65.24;100519.64;1731138;83;21565;-72
2024/01/07 10:28:06;;;;;;;6.03;3.15;;;;;;;-5.55;65.30;100517.92;1727779;81;21030;-70
2024/01/07 10:30:35;;;;;;;7.58;3.27;;;;;;;-5.55;65.30;100517.92;1727875;82;21490;-72
2024/01/07 10:33:11;;;;;;;9.20;3.45;;;;;;;-5.59;65.09;100509.25;1727540;83;21551;-71
2024/01/07 10:35:43;;;;;;;11.50;3.52;;;;;;;-5.63;65.00;100511.72;1727980;82;21723;-72
2024/01/07 10:38:11;;;;;;;11.20;3.62;;;;;;;-5.65;65.01;100505.61;1727893;82;21019;-71
2024/01/07 10:40:40;;;;;;;13.43;3.83;;;;;;;-5.61;65.32;100512.48;1727960;83;21493;-71
2024/01/07 10:43:09;;;;;;;9.95;3.22;;;;;;;-5.57;65.28;100506.48;1709485;83;21084;-71
2024/01/07 10:45:39;;;;;;;10.18;3.52;;;;;;;-5.56;65.21;100514.87;1727974;82;21098;-72
2024/01/07 10:48:08;;;;;;;9.33;3.50;;;;;;;-5.58;65.16;100515.44;1727709;82;21477;-71
2024/01/07 10:50:38;;;;;;;8.03;3.58;;;;;;;-5.60;65.29;100516.02;1727936;83;21558;-71
2024/01/07 10:53:07;;;;;;;5.95;3.00;;;;;;;-5.66;64.97;100513.71;1727820;83;21113;-72
2024/01/07 10:55:37;;;;;;;7.90;3.40;;;;;;;-5.71;64.70;100508.65;1727916;82;21094;-71
2024/01/07 10:58:05;;;;;;;6.30;2.67;;;;;;;-5.69;64.72;100508.09;1727945;82;20992;-70
2024/01/07 11:00:35;;;;;;;8.30;3.65;;;;;;;-5.70;64.82;100506.36;1728063;83;21054;-71
2024/01/07 11:03:35;;;;;;;7.40;3.27;;;;;;;-5.76;64.67;100504.06;1727841;83;20991;-69
2024/01/07 11:06:32;;;;;;;6.95;3.17;;;;;;;-5.76;64.67;100504.06;1727850;82;21118;-71
2024/01/07 11:09:17;;;;;;;10.53;3.80;;;;;;;-5.76;64.50;100511.59;1718369;82;21071;-70
2024/01/07 11:11:47;;;;;;;7.12;3.22;;;;;;;-5.73;64.87;100493.20;1727794;82;21031;-71
2024/01/07 11:14:40;;;;;;;11.20;3.83;;;;;;;-5.69;64.81;100493.41;1727781;82;21087;-72
2024/01/07 11:17:26;;;;;;;10.55;3.35;;;;;;;-5.74;64.72;100502.16;1708822;83;21155;-71
2024/01/07 11:20:06;;;;;;;7.08;3.20;;;;;;;-5.81;64.50;100491.00;1723445;82;21081;-72
2024/01/07 11:22:35;;;;;;;9.28;3.35;;;;;;;-5.84;64.49;100496.52;1732230;83;21069;-72
2024/01/07 11:25:27;;;;;;;5.83;2.90;;;;;;;-5.87;65.67;100498.48;1731687;82;21051;-69
2024/01/07 11:27:58;;;;;;;6.97;3.62;;;;;;;-5.87;65.67;100498.48;1711092;83;21030;-71
2024/01/07 11:30:27;;;;;;;6.78;3.05;;;;;;;-5.87;65.54;100498.48;1675542;84;21050;-72
2024/01/07 11:32:59;;;;;;;14.87;3.50;;;;;;;-5.94;65.08;100490.48;1653555;84;21034;-71
2024/01/07 11:35:57;;;;;;;7.35;3.42;;;;;;;-5.94;65.08;100490.48;1702995;84;21142;-71